createdAt,value
2022-07-26T00:02:27.990Z,12.6
2022-07-26T00:07:27.939Z,12.7
2022-07-26T00:12:27.946Z,10.8
2022-07-26T00:17:27.987Z,11.3
2022-07-26T00:22:27.938Z,11.3
2022-07-26T00:27:27.949Z,12.8
2022-07-26T00:32:27.963Z,9.7
2022-07-26T00:37:27.937Z,13.4
2022-07-26T00:42:27.979Z,11.4
2022-07-26T00:47:27.952Z,10.2
2022-07-26T00:52:27.950Z,10.2
2022-07-26T00:57:27.950Z,13.1
2022-07-26T01:02:28.028Z,9.8
2022-07-26T01:07:27.944Z,9.3
2022-07-26T01:12:27.963Z,16.9
2022-07-26T01:17:27.966Z,12.8
2022-07-26T01:22:27.960Z,12.8
2022-07-26T01:27:32.139Z,11.4
2022-07-26T01:32:27.959Z,15.5
2022-07-26T01:37:27.951Z,17.0
2022-07-26T01:42:27.964Z,13.9
2022-07-26T01:47:27.983Z,15.6
2022-07-26T01:52:27.953Z,15.6
2022-07-26T01:57:27.983Z,17.7
2022-07-26T02:02:28.058Z,14.2
2022-07-26T02:07:27.972Z,11.9
2022-07-26T02:12:27.962Z,11.5
2022-07-26T02:17:27.988Z,15.7
2022-07-26T02:22:27.960Z,15.7
2022-07-26T02:27:27.976Z,15.8
2022-07-26T02:32:27.973Z,16.8
2022-07-26T02:37:27.980Z,15.5
2022-07-26T02:42:27.961Z,17.1
2022-07-26T02:47:27.997Z,15.8
2022-07-26T02:52:27.969Z,15.8
2022-07-26T02:57:28.055Z,17.2
2022-07-26T03:02:28.023Z,21.1
2022-07-26T03:07:27.986Z,18.2
2022-07-26T03:12:27.930Z,19.5
2022-07-26T03:17:28.001Z,14.0
2022-07-26T03:22:27.974Z,14.0
2022-07-26T03:27:27.995Z,14.6
2022-07-26T03:32:27.989Z,14.5
2022-07-26T03:37:45.164Z,17.8
2022-07-26T03:42:27.981Z,18.2
2022-07-26T03:47:28.007Z,15.0
2022-07-26T03:52:27.986Z,15.0
2022-07-26T03:57:28.391Z,16.8
2022-07-26T04:02:28.052Z,15.7
2022-07-26T04:07:27.990Z,17.7
2022-07-26T04:12:27.986Z,16.0
2022-07-26T04:17:28.007Z,11.8
2022-07-26T04:22:28.004Z,11.8
2022-07-26T04:27:27.981Z,17.5
2022-07-26T04:32:28.029Z,14.2
2022-07-26T04:37:27.986Z,14.3
2022-07-26T04:42:28.008Z,15.8
2022-07-26T04:47:28.012Z,14.3
2022-07-26T04:52:27.988Z,14.3
2022-07-26T04:57:28.010Z,18.0
2022-07-26T05:02:28.136Z,12.7
2022-07-26T05:07:28.004Z,18.0
2022-07-26T05:12:28.007Z,11.5
2022-07-26T05:17:28.018Z,11.6
2022-07-26T05:22:27.997Z,11.6
2022-07-26T05:27:28.025Z,14.4
2022-07-26T05:32:28.003Z,17.0
2022-07-26T05:37:28.009Z,15.1
2022-07-26T05:42:28.017Z,13.7
2022-07-26T05:47:28.029Z,19.3
2022-07-26T05:52:28.006Z,19.3
2022-07-26T05:57:28.053Z,11.3
2022-07-26T06:02:28.039Z,16.7
2022-07-26T06:07:28.019Z,9.1
2022-07-26T06:12:28.019Z,8.8
2022-07-26T06:17:28.173Z,6.6
2022-07-26T06:22:28.005Z,6.6
2022-07-26T06:27:28.021Z,7.7
2022-07-26T06:32:28.008Z,5.0
2022-07-26T06:37:28.023Z,8.3
2022-07-26T06:42:28.024Z,8.1
2022-07-26T06:47:27.997Z,9.8
2022-07-26T06:52:28.024Z,9.8
2022-07-26T06:57:28.025Z,7.8
2022-07-26T07:02:28.029Z,9.4
2022-07-26T07:07:28.548Z,14.9
2022-07-26T07:12:28.027Z,13.3
2022-07-26T07:17:28.077Z,7.0
2022-07-26T07:22:28.018Z,7.0
2022-07-26T07:27:28.038Z,11.9
2022-07-26T07:32:28.521Z,10.5
2022-07-26T07:37:28.031Z,7.1
2022-07-26T07:42:28.030Z,10.0
2022-07-26T07:47:28.047Z,8.6
2022-07-26T07:52:28.021Z,8.6
2022-07-26T07:57:28.059Z,8.1
2022-07-26T08:02:28.030Z,14.1
2022-07-26T08:07:32.888Z,7.0
2022-07-26T08:12:28.037Z,11.4
2022-07-26T08:17:28.044Z,7.4
2022-07-26T08:22:28.020Z,7.4
2022-07-26T08:27:28.036Z,6.5
2022-07-26T08:32:28.029Z,5.0
2022-07-26T08:37:28.041Z,5.1
2022-07-26T08:42:28.045Z,7.1
2022-07-26T08:47:37.486Z,5.9
2022-07-26T08:52:28.039Z,5.9
2022-07-26T08:57:28.041Z,3.5
2022-07-26T09:02:28.036Z,2.6
2022-07-26T09:07:28.039Z,4.7
2022-07-26T09:12:28.052Z,4.1
2022-07-26T09:17:28.041Z,2.8
2022-07-26T09:22:28.036Z,2.8
2022-07-26T09:27:28.380Z,5.4
2022-07-26T09:32:28.033Z,4.5
2022-07-26T09:37:28.056Z,3.1
2022-07-26T09:42:29.484Z,3.3
2022-07-26T09:47:28.059Z,2.2
2022-07-26T09:52:28.055Z,2.2
2022-07-26T09:57:28.051Z,4.2
2022-07-26T10:02:28.136Z,3.8
2022-07-26T10:07:28.054Z,3.7
2022-07-26T10:12:30.580Z,3.7
2022-07-26T10:17:29.273Z,3.3
2022-07-26T10:22:28.050Z,3.3
2022-07-26T10:27:28.052Z,3.2
2022-07-26T10:32:28.085Z,1.6
2022-07-26T10:37:28.138Z,3.4
2022-07-26T10:42:28.051Z,2.9
2022-07-26T10:47:32.040Z,1.6
2022-07-26T10:52:28.055Z,1.6
2022-07-26T10:57:28.061Z,3.1
2022-07-26T11:02:28.136Z,3.6
2022-07-26T11:07:28.082Z,4.3
2022-07-26T11:12:28.042Z,3.2
2022-07-26T11:17:28.058Z,2.6
2022-07-26T11:22:28.060Z,2.6
2022-07-26T11:27:28.061Z,2.1
2022-07-26T11:32:28.172Z,2.4
2022-07-26T11:37:28.069Z,2.0
2022-07-26T11:42:28.049Z,0.6
2022-07-26T11:47:28.064Z,1.0
2022-07-26T11:52:28.057Z,1.0
2022-07-26T11:57:28.073Z,1.2
2022-07-26T12:02:28.076Z,1.5
2022-07-26T12:07:28.069Z,2.9
2022-07-26T12:12:28.050Z,0.9
2022-07-26T12:17:35.012Z,2.3
2022-07-26T12:22:28.069Z,2.3
2022-07-26T12:27:28.049Z,4.3
2022-07-26T12:32:28.074Z,1.6
2022-07-26T12:37:37.654Z,1.9
2022-07-26T12:42:34.300Z,4.0
2022-07-26T12:47:28.056Z,3.7
2022-07-26T12:52:28.080Z,3.7
2022-07-26T12:57:28.147Z,7.8
2022-07-26T13:02:28.057Z,5.5
2022-07-26T13:07:28.074Z,9.1
2022-07-26T13:12:28.060Z,6.1
2022-07-26T13:17:28.065Z,6.1
2022-07-26T13:22:28.080Z,5.1
2022-07-26T13:27:35.181Z,3.8
2022-07-26T13:32:28.058Z,4.8
2022-07-26T13:37:28.072Z,5.2
2022-07-26T13:42:28.077Z,5.0
2022-07-26T13:47:28.056Z,5.0
2022-07-26T13:52:28.067Z,8.1
2022-07-26T13:57:47.247Z,6.2
2022-07-26T14:02:28.116Z,5.1
2022-07-26T14:07:28.072Z,4.6
2022-07-26T14:12:28.062Z,6.3
2022-07-26T14:17:28.077Z,6.3
2022-07-26T14:22:28.079Z,2.9
2022-07-26T14:27:28.067Z,3.3
2022-07-26T14:32:28.065Z,4.9
2022-07-26T14:37:43.503Z,5.0
2022-07-26T14:42:28.059Z,3.3
2022-07-26T14:47:28.074Z,3.3
2022-07-26T14:52:28.056Z,2.8
2022-07-26T14:57:28.073Z,2.5
2022-07-26T15:02:28.110Z,2.8
2022-07-26T15:07:28.074Z,2.7
2022-07-26T15:12:28.066Z,2.2
2022-07-26T15:17:28.080Z,2.2
2022-07-26T15:22:28.061Z,3.5
2022-07-26T15:27:28.061Z,2.8
2022-07-26T15:32:28.054Z,1.7
2022-07-26T15:37:28.076Z,2.0
2022-07-26T15:42:28.076Z,2.5
2022-07-26T15:47:52.800Z,2.5
2022-07-26T15:52:28.059Z,2.5
2022-07-26T15:57:28.060Z,2.4
2022-07-26T16:02:28.153Z,2.1
2022-07-26T16:07:28.065Z,2.4
2022-07-26T16:12:28.062Z,2.7
2022-07-26T16:17:28.058Z,2.7
2022-07-26T16:22:28.070Z,4.4
2022-07-26T16:27:28.049Z,4.1
2022-07-26T16:32:28.073Z,5.8
2022-07-26T16:37:28.065Z,1.7
2022-07-26T16:42:28.067Z,3.1
2022-07-26T16:47:28.087Z,3.1
2022-07-26T16:52:28.080Z,2.5
2022-07-26T16:57:28.074Z,2.5
2022-07-26T17:02:28.177Z,3.2
2022-07-26T17:07:28.086Z,4.3
2022-07-26T17:12:28.072Z,2.9
2022-07-26T17:17:28.116Z,2.9
2022-07-26T17:22:28.090Z,3.9
2022-07-26T17:27:28.095Z,3.9
2022-07-26T17:32:28.196Z,3.2
2022-07-26T17:37:28.620Z,3.9
2022-07-26T17:42:28.110Z,1.6
2022-07-26T17:47:30.377Z,1.6
2022-07-26T17:52:28.107Z,2.9
2022-07-26T17:57:28.143Z,4.2
2022-07-26T18:02:28.146Z,3.0
2022-07-26T18:07:28.236Z,3.4
2022-07-26T18:12:28.124Z,2.5
2022-07-26T18:17:28.167Z,2.5
2022-07-26T18:22:28.153Z,4.1
2022-07-26T18:27:28.322Z,2.2
2022-07-26T18:32:28.158Z,4.2
2022-07-26T18:37:28.167Z,2.4
2022-07-26T18:42:28.160Z,3.8
2022-07-26T18:47:28.183Z,3.8
2022-07-26T18:52:28.640Z,2.6
2022-07-26T18:57:28.172Z,1.8
2022-07-26T19:02:28.189Z,2.0
2022-07-26T19:07:28.171Z,2.8
2022-07-26T19:12:28.197Z,1.7
2022-07-26T19:17:28.206Z,1.7
2022-07-26T19:22:28.205Z,2.8
2022-07-26T19:27:28.210Z,2.5
2022-07-26T19:32:33.149Z,2.0
2022-07-26T19:37:28.211Z,3.3
2022-07-26T19:42:28.226Z,6.0
2022-07-26T19:47:28.228Z,6.0
2022-07-26T19:52:28.235Z,2.4
2022-07-26T19:57:28.248Z,2.0
2022-07-26T20:02:28.312Z,2.5
2022-07-26T20:07:28.271Z,2.6
2022-07-26T20:12:28.250Z,4.7
2022-07-26T20:17:28.373Z,4.7
2022-07-26T20:22:28.304Z,6.9
2022-07-26T20:27:28.278Z,3.4
2022-07-26T20:32:28.275Z,4.6
2022-07-26T20:37:28.270Z,4.2
2022-07-26T20:42:28.266Z,6.7
2022-07-26T20:47:28.272Z,6.7
2022-07-26T20:52:28.287Z,3.6
2022-07-26T20:57:28.274Z,8.4
2022-07-26T21:02:28.386Z,4.1
2022-07-26T21:07:57.149Z,7.7
2022-07-26T21:12:28.293Z,3.3
2022-07-26T21:17:34.652Z,3.3
2022-07-26T21:22:28.379Z,7.0
2022-07-26T21:27:28.304Z,4.3
2022-07-26T21:32:31.546Z,5.5
2022-07-26T21:37:28.353Z,3.6
2022-07-26T21:42:28.329Z,4.9
2022-07-26T21:47:28.340Z,4.9
2022-07-26T21:52:28.347Z,2.7
2022-07-26T21:57:28.345Z,6.1
2022-07-26T22:02:28.509Z,5.8
2022-07-26T22:07:28.367Z,6.9
2022-07-26T22:12:28.361Z,3.6
2022-07-26T22:17:28.383Z,3.6
2022-07-26T22:22:28.364Z,3.4
2022-07-26T22:27:28.386Z,3.9
2022-07-26T22:32:28.388Z,3.4
2022-07-26T22:37:28.398Z,5.1
2022-07-26T22:42:28.394Z,3.0
2022-07-26T22:47:28.402Z,3.0
2022-07-26T22:52:28.422Z,2.5
2022-07-26T22:57:28.411Z,4.2
2022-07-26T23:02:28.410Z,4.4
2022-07-26T23:07:28.423Z,5.1
2022-07-26T23:12:28.428Z,6.0
2022-07-26T23:17:28.442Z,6.0
2022-07-26T23:22:28.449Z,3.3
2022-07-26T23:27:28.446Z,5.5
2022-07-26T23:32:28.447Z,6.6
2022-07-26T23:37:28.471Z,2.8
2022-07-26T23:42:28.455Z,8.3
2022-07-26T23:47:28.475Z,8.3
2022-07-26T23:52:28.491Z,7.1
2022-07-26T23:57:28.482Z,4.3
